createdAt,value
2022-09-10T00:02:29.701Z,99106.28
2022-09-10T00:05:18.138Z,99106.28
2022-09-10T00:08:07.131Z,99096.88
2022-09-10T00:10:54.431Z,99103.84
2022-09-10T00:13:44.109Z,99101.91
2022-09-10T00:16:33.269Z,99102.69
2022-09-10T00:19:21.908Z,99105.28
2022-09-10T00:22:10.475Z,99104.31
2022-09-10T00:24:57.929Z,99109.50
2022-09-10T00:27:45.187Z,99098.19
2022-09-10T00:30:33.806Z,99101.59
2022-09-10T00:33:23.312Z,99101.59
2022-09-10T00:36:17.538Z,99112.75
2022-09-10T00:39:08.328Z,99103.38
2022-09-10T00:41:58.329Z,99100.78
2022-09-10T00:45:04.937Z,99109.50
2022-09-10T00:47:56.428Z,99101.75
2022-09-10T00:50:47.262Z,99103.38
2022-09-10T00:53:34.852Z,99106.75
2022-09-10T00:56:22.975Z,99105.97
2022-09-10T00:59:12.172Z,99105.16
2022-09-10T01:01:59.897Z,99100.78
2022-09-10T01:04:48.380Z,99095.63
2022-09-10T01:07:36.331Z,99100.78
2022-09-10T01:10:29.159Z,99095.63
2022-09-10T01:13:41.978Z,99105.16
2022-09-10T01:16:37.363Z,99103.38
2022-09-10T01:19:58.814Z,99104.31
2022-09-10T01:23:26.343Z,99097.53
2022-09-10T01:26:32.528Z,99101.09
2022-09-10T01:29:29.414Z,99109.50
2022-09-10T01:32:23.522Z,99096.56
2022-09-10T01:35:17.293Z,99096.56
2022-09-10T01:38:10.932Z,99108.69
2022-09-10T01:40:58.632Z,99110.44
2022-09-10T01:43:48.932Z,99114.66
2022-09-10T01:46:46.493Z,99114.66
2022-09-10T01:49:41.434Z,99113.72
2022-09-10T01:52:42.310Z,99111.13
2022-09-10T01:55:44.253Z,99107.59
2022-09-10T01:58:37.690Z,99105.00
2022-09-10T02:01:39.761Z,99111.81
2022-09-10T02:04:28.730Z,99110.97
2022-09-10T02:07:19.161Z,99110.81
2022-09-10T02:10:10.345Z,99110.97
2022-09-10T02:13:04.321Z,99104.03
2022-09-10T02:16:22.514Z,99103.22
2022-09-10T02:19:11.958Z,99100.63
2022-09-10T02:22:01.050Z,99102.41
2022-09-10T02:24:48.250Z,99095.31
2022-09-10T02:27:35.839Z,99102.41
2022-09-10T02:30:24.871Z,99101.47
2022-09-10T02:33:16.271Z,99095.47
2022-09-10T02:36:05.768Z,99093.69
2022-09-10T02:38:53.694Z,99090.13
2022-09-10T02:41:40.906Z,99096.94
2022-09-10T02:44:28.332Z,99087.53
2022-09-10T02:47:15.782Z,99085.94
2022-09-10T02:50:03.102Z,99082.38
2022-09-10T02:52:52.567Z,99074.63
2022-09-10T02:55:40.623Z,99073.66
2022-09-10T02:58:27.708Z,99072.19
2022-09-10T03:01:19.247Z,99072.03
2022-09-10T03:04:13.676Z,99073.03
2022-09-10T03:07:00.601Z,99070.44
2022-09-10T03:09:49.865Z,99066.38
2022-09-10T03:12:37.523Z,99067.19
2022-09-10T03:15:25.557Z,99074.13
2022-09-10T03:18:13.100Z,99074.94
2022-09-10T03:21:11.058Z,99080.09
2022-09-10T03:23:58.604Z,99074.13
2022-09-10T03:26:50.810Z,99072.50
2022-09-10T03:29:38.171Z,99076.72
2022-09-10T03:32:26.187Z,99078.47
2022-09-10T03:35:15.830Z,99080.09
2022-09-10T03:38:03.522Z,99083.66
2022-09-10T03:40:50.985Z,99086.22
2022-09-10T03:43:39.683Z,99082.84
2022-09-10T03:46:29.506Z,99079.44
2022-09-10T03:49:18.917Z,99083.66
2022-09-10T03:52:06.331Z,99089.66
2022-09-10T03:54:56.705Z,99090.44
2022-09-10T03:57:44.029Z,99089.66
2022-09-10T04:00:32.379Z,99085.28
2022-09-10T04:03:21.412Z,99087.88
2022-09-10T04:06:11.459Z,99086.06
2022-09-10T04:08:59.036Z,99084.47
2022-09-10T04:11:47.098Z,99084.47
2022-09-10T04:14:34.458Z,99090.44
2022-09-10T04:17:25.440Z,99090.44
2022-09-10T04:20:12.873Z,99090.44
2022-09-10T04:23:00.605Z,99094.81
2022-09-10T04:25:49.544Z,99091.41
2022-09-10T04:28:36.895Z,99094.81
2022-09-10T04:31:24.645Z,99088.03
2022-09-10T04:34:17.334Z,99090.75
2022-09-10T04:37:04.513Z,99087.34
2022-09-10T04:39:53.158Z,99095.09
2022-09-10T04:42:41.615Z,99089.94
2022-09-10T04:45:29.628Z,99090.75
2022-09-10T04:48:16.795Z,99090.75
2022-09-10T04:51:16.199Z,99088.34
2022-09-10T04:54:05.653Z,99096.22
2022-09-10T04:56:56.805Z,99095.38
2022-09-10T04:59:44.113Z,99092.66
2022-09-10T05:02:31.925Z,99108.19
2022-09-10T05:05:19.107Z,99111.59
2022-09-10T05:08:08.152Z,99112.56
2022-09-10T05:10:55.658Z,99113.34
2022-09-10T05:13:43.528Z,99108.19
2022-09-10T05:16:32.145Z,99110.75
2022-09-10T05:19:19.746Z,99109.97
2022-09-10T05:22:11.965Z,99116.88
2022-09-10T05:25:00.520Z,99106.53
2022-09-10T05:27:48.346Z,99116.88
2022-09-10T05:30:39.441Z,99115.25
2022-09-10T05:33:26.777Z,99117.84
2022-09-10T05:36:14.770Z,99122.19
2022-09-10T05:39:04.762Z,99118.63
2022-09-10T05:41:57.344Z,99126.56
2022-09-10T05:44:44.563Z,99120.59
2022-09-10T05:47:31.745Z,99123.16
2022-09-10T05:50:21.261Z,99117.16
2022-09-10T05:53:09.845Z,99127.50
2022-09-10T05:55:57.649Z,99127.50
2022-09-10T05:58:46.087Z,99121.53
2022-09-10T06:01:35.861Z,99124.91
2022-09-10T06:04:25.782Z,99125.75
2022-09-10T06:07:13.322Z,99125.88
2022-09-10T06:10:02.137Z,99124.13
2022-09-10T06:12:58.133Z,99127.50
2022-09-10T06:15:47.199Z,99127.50
2022-09-10T06:18:35.597Z,99126.72
2022-09-10T06:21:28.270Z,99130.25
2022-09-10T06:24:17.589Z,99128.47
2022-09-10T06:27:07.182Z,99137.19
2022-09-10T06:29:56.420Z,99139.78
2022-09-10T06:32:45.307Z,99134.63
2022-09-10T06:35:33.372Z,99136.38
2022-09-10T06:38:20.858Z,99147.69
2022-09-10T06:41:13.582Z,99146.88
2022-09-10T06:44:08.493Z,99143.31
2022-09-10T06:47:35.961Z,99156.25
2022-09-10T06:50:08.964Z,99146.06
2022-09-10T06:52:58.451Z,99145.22
2022-09-10T06:55:45.866Z,99150.41
2022-09-10T06:58:35.205Z,99147.81
2022-09-10T07:01:25.758Z,99150.41
2022-09-10T07:04:19.045Z,99150.41
2022-09-10T07:07:07.726Z,99157.34
2022-09-10T07:09:55.477Z,99160.75
2022-09-10T07:12:43.422Z,99155.56
2022-09-10T07:15:30.631Z,99159.94
2022-09-10T07:18:18.405Z,99161.56
2022-09-10T07:21:10.349Z,99157.34
2022-09-10T07:24:04.909Z,99163.31
2022-09-10T07:26:54.262Z,99166.91
2022-09-10T07:29:41.624Z,99168.66
2022-09-10T07:32:35.293Z,99166.91
2022-09-10T07:35:31.186Z,99170.44
2022-09-10T07:38:20.676Z,99174.66
2022-09-10T07:41:13.533Z,99178.19
2022-09-10T07:44:00.876Z,99183.34
2022-09-10T07:46:54.195Z,99199.66
2022-09-10T07:49:41.425Z,99193.00
2022-09-10T07:52:28.541Z,99193.00
2022-09-10T07:55:18.110Z,99194.66
2022-09-10T07:58:06.963Z,99200.75
2022-09-10T08:00:55.303Z,99197.22
2022-09-10T08:03:42.720Z,99195.44
2022-09-10T08:06:32.601Z,99197.22
2022-09-10T08:09:20.497Z,99199.81
2022-09-10T08:12:12.823Z,99205.94
2022-09-10T08:15:02.383Z,99202.41
2022-09-10T08:17:49.659Z,99205.94
2022-09-10T08:20:40.092Z,99206.91
2022-09-10T08:23:27.567Z,99205.13
2022-09-10T08:26:15.011Z,99216.28
2022-09-10T08:29:05.298Z,99217.91
2022-09-10T08:31:53.761Z,99217.91
2022-09-10T08:34:46.788Z,99226.34
2022-09-10T08:37:34.257Z,99219.38
2022-09-10T08:40:23.732Z,99222.75
2022-09-10T08:43:13.143Z,99229.56
2022-09-10T08:46:06.871Z,99223.44
2022-09-10T08:49:06.600Z,99229.41
2022-09-10T08:51:58.557Z,99229.41
2022-09-10T08:54:57.354Z,99232.69
2022-09-10T08:57:50.080Z,99232.69
2022-09-10T09:00:41.685Z,99229.13
2022-09-10T09:03:37.826Z,99236.75
2022-09-10T09:06:33.546Z,99240.13
2022-09-10T09:09:21.993Z,99241.78
2022-09-10T09:12:22.227Z,99239.06
2022-09-10T09:15:15.957Z,99242.44
2022-09-10T09:18:18.541Z,99242.28
2022-09-10T09:21:14.829Z,99244.88
2022-09-10T09:24:13.617Z,99239.56
2022-09-10T09:27:12.764Z,99242.81
2022-09-10T09:30:06.458Z,99242.81
2022-09-10T09:33:03.827Z,99240.06
2022-09-10T09:35:55.333Z,99240.75
2022-09-10T09:38:46.776Z,99244.13
2022-09-10T09:41:50.527Z,99237.22
2022-09-10T09:44:42.408Z,99239.63
2022-09-10T09:47:29.911Z,99243.03
2022-09-10T09:50:19.385Z,99237.84
2022-09-10T09:53:06.743Z,99240.44
2022-09-10T09:55:56.581Z,99229.16
2022-09-10T09:58:50.756Z,99235.94
2022-09-10T10:01:42.966Z,99236.75
2022-09-10T10:04:33.931Z,99228.84
2022-09-10T10:07:27.372Z,99225.28
2022-09-10T10:10:25.528Z,99223.34
2022-09-10T10:13:22.625Z,99218.72
2022-09-10T10:16:19.327Z,99221.13
2022-09-10T10:19:31.227Z,99215.00
2022-09-10T10:22:25.237Z,99215.00
2022-09-10T10:25:41.207Z,99208.88
2022-09-10T10:28:28.715Z,99212.25
2022-09-10T10:31:18.851Z,99208.72
2022-09-10T10:34:34.633Z,99211.47
2022-09-10T10:37:36.271Z,99206.28
2022-09-10T10:40:31.372Z,99202.06
2022-09-10T10:43:30.978Z,99200.44
2022-09-10T10:46:22.974Z,99203.88
2022-09-10T10:49:27.028Z,99207.25
2022-09-10T10:52:24.528Z,99206.44
2022-09-10T10:55:23.259Z,99210.78
2022-09-10T10:58:54.589Z,99208.38
2022-09-10T11:01:49.630Z,99206.56
2022-09-10T11:04:44.032Z,99210.94
2022-09-10T11:07:39.243Z,99211.75
2022-09-10T11:10:32.877Z,99214.34
2022-09-10T11:13:24.557Z,99221.13
2022-09-10T11:16:20.226Z,99220.34
2022-09-10T11:19:17.816Z,99211.75
2022-09-10T11:22:14.008Z,99207.41
2022-09-10T11:25:09.637Z,99210.00
2022-09-10T11:28:02.487Z,99204.00
2022-09-10T11:30:58.065Z,99205.63
2022-09-10T11:33:56.406Z,99205.63
2022-09-10T11:36:51.857Z,99210.00
2022-09-10T11:39:43.467Z,99209.16
2022-09-10T11:42:37.201Z,99207.41
2022-09-10T11:45:36.290Z,99204.16
2022-09-10T11:48:30.278Z,99200.91
2022-09-10T11:51:26.250Z,99200.75
2022-09-10T11:54:18.137Z,99199.13
2022-09-10T11:57:11.881Z,99198.34
2022-09-10T12:00:15.756Z,99192.47
2022-09-10T12:03:43.036Z,99196.84
2022-09-10T12:06:38.337Z,99198.59
2022-09-10T12:09:36.265Z,99195.22
2022-09-10T12:12:32.618Z,99192.63
2022-09-10T12:15:23.322Z,99190.06
2022-09-10T12:18:17.496Z,99196.84
2022-09-10T12:21:10.425Z,99185.56
2022-09-10T12:23:58.174Z,99188.94
2022-09-10T12:26:46.802Z,99192.31
2022-09-10T12:29:37.517Z,99198.34
2022-09-10T12:32:34.127Z,99182.81
2022-09-10T12:35:49.008Z,99189.91
2022-09-10T12:39:16.468Z,99189.91
2022-09-10T12:42:28.569Z,99188.28
2022-09-10T12:46:02.828Z,99186.81
2022-09-10T12:48:52.921Z,99184.25
2022-09-10T12:51:57.874Z,99183.94
2022-09-10T12:54:56.874Z,99186.50
2022-09-10T12:57:54.044Z,99183.09
2022-09-10T13:00:48.718Z,99183.94
2022-09-10T13:03:37.742Z,99189.09
2022-09-10T13:06:38.331Z,99192.31
2022-09-10T13:09:30.991Z,99183.63
2022-09-10T13:12:22.120Z,99180.06
2022-09-10T13:15:20.044Z,99178.13
2022-09-10T13:18:33.120Z,99171.22
2022-09-10T13:21:53.001Z,99167.66
2022-09-10T13:25:02.696Z,99171.06
2022-09-10T13:27:49.895Z,99172.53
2022-09-10T13:30:38.489Z,99162.81
2022-09-10T13:33:30.161Z,99159.28
2022-09-10T13:36:29.257Z,99167.72
2022-09-10T13:39:57.363Z,99158.16
2022-09-10T13:43:05.444Z,99148.47
2022-09-10T13:46:00.377Z,99149.13
2022-09-10T13:48:54.177Z,99151.56
2022-09-10T13:51:50.466Z,99142.84
2022-09-10T13:54:40.997Z,99143.66
2022-09-10T13:57:32.021Z,99143.38
2022-09-10T14:00:24.373Z,99140.63
2022-09-10T14:03:24.222Z,99137.88
2022-09-10T14:06:16.840Z,99137.03
2022-09-10T14:09:06.597Z,99138.69
2022-09-10T14:11:55.499Z,99142.72
2022-09-10T14:14:45.732Z,99138.34
2022-09-10T14:17:41.195Z,99133.19
2022-09-10T14:20:33.281Z,99139.19
2022-09-10T14:23:20.766Z,99130.47
2022-09-10T14:26:15.730Z,99135.66
2022-09-10T14:29:20.871Z,99136.28
2022-09-10T14:32:30.921Z,99138.22
2022-09-10T14:35:40.178Z,99135.66
2022-09-10T14:38:30.270Z,99141.63
2022-09-10T14:41:23.959Z,99141.63
2022-09-10T14:44:27.436Z,99140.81
2022-09-10T14:47:27.113Z,99138.22
2022-09-10T14:50:34.321Z,99139.19
2022-09-10T14:53:22.698Z,99140.94
2022-09-10T14:56:22.385Z,99141.78
2022-09-10T14:59:16.999Z,99144.53
2022-09-10T15:02:15.764Z,99141.94
2022-09-10T15:05:03.072Z,99147.91
2022-09-10T15:07:50.375Z,99140.81
2022-09-10T15:10:39.055Z,99136.44
2022-09-10T15:13:26.105Z,99136.28
2022-09-10T15:16:13.431Z,99133.69
2022-09-10T15:19:00.617Z,99134.38
2022-09-10T15:21:47.959Z,99134.22
2022-09-10T15:24:52.557Z,99134.22
2022-09-10T15:27:44.246Z,99135.00
2022-09-10T15:30:31.364Z,99128.06
2022-09-10T15:33:18.532Z,99123.69
2022-09-10T15:36:06.622Z,99130.50
2022-09-10T15:38:53.878Z,99145.03
2022-09-10T15:41:45.029Z,99139.06
2022-09-10T15:44:34.248Z,99133.88
2022-09-10T15:47:21.306Z,99143.28
2022-09-10T15:50:10.801Z,99124.34
2022-09-10T15:52:57.989Z,99132.09
2022-09-10T15:55:45.110Z,99140.84
2022-09-10T15:58:35.409Z,99128.72
2022-09-10T16:01:26.003Z,99131.47
2022-09-10T16:04:14.858Z,99131.47
2022-09-10T16:07:02.191Z,99140.03
2022-09-10T16:09:49.441Z,99140.03
2022-09-10T16:12:36.851Z,99132.25
2022-09-10T16:15:23.805Z,99141.66
2022-09-10T16:18:13.086Z,99139.06
2022-09-10T16:21:10.550Z,99139.88
2022-09-10T16:24:00.657Z,99149.41
2022-09-10T16:26:49.170Z,99149.41
2022-09-10T16:29:36.309Z,99156.38
2022-09-10T16:32:23.790Z,99155.38
2022-09-10T16:35:12.191Z,99154.59
2022-09-10T16:38:00.607Z,99149.56
2022-09-10T16:40:47.661Z,99169.31
2022-09-10T16:43:36.130Z,99169.47
2022-09-10T16:46:23.633Z,99172.06
2022-09-10T16:49:13.972Z,99178.03
2022-09-10T16:52:03.071Z,99189.34
2022-09-10T16:54:50.477Z,99179.00
2022-09-10T16:57:37.715Z,99179.00
2022-09-10T17:00:25.005Z,99179.16
2022-09-10T17:03:12.198Z,99182.69
2022-09-10T17:06:00.155Z,99192.25
2022-09-10T17:08:50.170Z,99195.78
2022-09-10T17:11:38.345Z,99200.16
2022-09-10T17:14:25.742Z,99201.91
2022-09-10T17:17:13.939Z,99201.91
2022-09-10T17:20:01.257Z,99201.28
2022-09-10T17:22:48.529Z,99203.69
2022-09-10T17:25:37.543Z,99190.94
2022-09-10T17:28:24.555Z,99195.25
2022-09-10T17:31:11.650Z,99191.56
2022-09-10T17:33:59.621Z,99188.34
2022-09-10T17:36:48.353Z,99185.75
2022-09-10T17:39:35.858Z,99190.09
2022-09-10T17:42:24.253Z,99196.25
2022-09-10T17:45:13.477Z,99195.44
2022-09-10T17:48:00.640Z,99195.44
2022-09-10T17:50:48.760Z,99195.59
2022-09-10T17:53:36.311Z,99195.59
2022-09-10T17:56:25.455Z,99203.34
2022-09-10T17:59:15.643Z,99210.31
2022-09-10T18:02:02.811Z,99219.03
2022-09-10T18:04:51.181Z,99219.97
2022-09-10T18:07:39.114Z,99225.16
2022-09-10T18:10:26.544Z,99233.91
2022-09-10T18:13:14.371Z,99226.13
2022-09-10T18:16:07.099Z,99238.41
2022-09-10T18:18:58.307Z,99241.94
2022-09-10T18:21:47.583Z,99236.91
2022-09-10T18:24:34.701Z,99237.75
2022-09-10T18:27:21.749Z,99247.25
2022-09-10T18:30:10.189Z,99240.34
2022-09-10T18:32:58.819Z,99244.84
2022-09-10T18:35:47.324Z,99237.88
2022-09-10T18:38:34.488Z,99250.69
2022-09-10T18:41:25.745Z,99250.69
2022-09-10T18:44:17.274Z,99252.59
2022-09-10T18:47:17.792Z,99256.97
2022-09-10T18:50:15.812Z,99256.28
2022-09-10T18:53:03.100Z,99260.66
2022-09-10T18:55:50.205Z,99263.25
2022-09-10T18:58:37.327Z,99260.81
2022-09-10T19:01:26.127Z,99265.00
2022-09-10T19:04:17.150Z,99264.34
2022-09-10T19:07:06.751Z,99260.13
2022-09-10T19:09:54.042Z,99257.56
2022-09-10T19:12:41.318Z,99265.31
2022-09-10T19:15:29.016Z,99255.75
2022-09-10T19:18:16.380Z,99261.94
2022-09-10T19:21:06.377Z,99264.66
2022-09-10T19:23:59.533Z,99265.47
2022-09-10T19:26:47.902Z,99269.00
2022-09-10T19:29:35.456Z,99264.94
2022-09-10T19:32:23.135Z,99270.94
2022-09-10T19:35:11.418Z,99271.91
2022-09-10T19:37:59.935Z,99278.03
2022-09-10T19:40:48.577Z,99278.84
2022-09-10T19:43:36.584Z,99278.84
2022-09-10T19:46:28.410Z,99276.28
2022-09-10T19:49:17.412Z,99279.81
2022-09-10T19:52:04.782Z,99280.59
2022-09-10T19:54:51.881Z,99282.56
2022-09-10T19:57:40.350Z,99268.00
2022-09-10T20:00:45.848Z,99274.78
2022-09-10T20:03:33.698Z,99273.97
2022-09-10T20:06:23.948Z,99276.69
2022-09-10T20:09:11.619Z,99291.25
2022-09-10T20:11:58.807Z,99276.69
2022-09-10T20:14:47.081Z,99276.69
2022-09-10T20:17:34.606Z,99267.31
2022-09-10T20:20:21.962Z,99276.69
2022-09-10T20:23:09.475Z,99269.09
2022-09-10T20:25:56.488Z,99268.31
2022-09-10T20:28:44.790Z,99265.72
2022-09-10T20:31:36.604Z,99271.00
2022-09-10T20:34:23.933Z,99280.53
2022-09-10T20:37:11.353Z,99286.53
2022-09-10T20:39:59.250Z,99289.94
2022-09-10T20:42:46.420Z,99277.97
2022-09-10T20:45:33.587Z,99277.97
2022-09-10T20:48:22.063Z,99259.88
2022-09-10T20:51:10.022Z,99265.03
2022-09-10T20:53:57.254Z,99272.00
2022-09-10T20:56:44.956Z,99296.88
2022-09-10T20:59:32.224Z,99296.06
2022-09-10T21:02:19.381Z,99299.59
2022-09-10T21:05:09.021Z,99298.66
2022-09-10T21:07:56.637Z,99298.66
2022-09-10T21:10:44.027Z,99298.66
2022-09-10T21:13:31.172Z,99296.88
2022-09-10T21:16:20.831Z,99305.59
2022-09-10T21:19:11.445Z,99309.00
2022-09-10T21:22:00.254Z,99299.59
2022-09-10T21:24:47.429Z,99298.00
2022-09-10T21:27:34.931Z,99292.84
2022-09-10T21:30:22.233Z,99292.00
2022-09-10T21:33:09.181Z,99298.00
2022-09-10T21:36:02.578Z,99297.00
2022-09-10T21:38:53.292Z,99284.25
2022-09-10T21:41:44.042Z,99284.41
2022-09-10T21:44:32.292Z,99302.34
2022-09-10T21:47:19.723Z,99280.03
2022-09-10T21:50:08.075Z,99271.47
2022-09-10T21:52:55.012Z,99296.53
2022-09-10T21:55:43.864Z,99293.09
2022-09-10T21:58:34.557Z,99297.47
2022-09-10T22:01:24.797Z,99291.50
2022-09-10T22:04:13.034Z,99295.84
2022-09-10T22:07:04.944Z,99291.50
2022-09-10T22:09:52.277Z,99288.91
2022-09-10T22:12:40.639Z,99294.09
2022-09-10T22:15:28.344Z,99290.66
2022-09-10T22:18:15.764Z,99295.03
2022-09-10T22:21:03.573Z,99301.16
2022-09-10T22:23:51.740Z,99301.16
2022-09-10T22:26:43.339Z,99304.56
2022-09-10T22:29:31.994Z,99308.13
2022-09-10T22:32:19.456Z,99300.50
2022-09-10T22:35:07.792Z,99299.53
2022-09-10T22:37:58.592Z,99312.44
2022-09-10T22:40:46.727Z,99307.28
2022-09-10T22:43:34.634Z,99312.44
2022-09-10T22:46:23.792Z,99296.94
2022-09-10T22:49:11.378Z,99307.28
2022-09-10T22:51:58.440Z,99314.88
2022-09-10T22:54:45.697Z,99319.25
2022-09-10T22:57:33.045Z,99313.28
2022-09-10T23:00:20.931Z,99307.13
2022-09-10T23:03:09.785Z,99307.28
2022-09-10T23:06:06.162Z,99310.84
2022-09-10T23:08:55.542Z,99313.44
2022-09-10T23:11:44.600Z,99315.19
2022-09-10T23:14:32.121Z,99323.09
2022-09-10T23:17:22.402Z,99323.91
2022-09-10T23:20:12.380Z,99323.09
2022-09-10T23:22:59.663Z,99320.53
2022-09-10T23:25:47.033Z,99332.63
2022-09-10T23:28:34.529Z,99329.22
2022-09-10T23:31:24.658Z,99334.41
2022-09-10T23:34:14.403Z,99328.41
2022-09-10T23:37:02.679Z,99319.84
2022-09-10T23:39:49.747Z,99325.00
2022-09-10T23:42:37.004Z,99316.28
2022-09-10T23:45:24.030Z,99326.63
2022-09-10T23:48:11.166Z,99327.47
2022-09-10T23:50:58.690Z,99328.41
2022-09-10T23:53:48.501Z,99324.06
2022-09-10T23:56:35.585Z,99326.63
2022-09-10T23:59:22.728Z,99329.22
